LFBO Airport Information

Runway Information
Runway 14L Length 9843 ft width 148 ft
Elevation 490 ft Threshold 0 ft Heading 143
Runway 32R Length 9843 ft Width 148 ft
Elevation 497 ft Threshold 0 ft Heading 323
Runway 14R Length 11483 ft width 148 ft
Elevation 488 ft Threshold 0 ft Heading 143
Runway 32L Length 11483 ft Width 148 ft
Elevation 497 ft Threshold 0 ft Heading 323
Airport Frequencies
Type AFIS Name TOULOUSE I Frequency 121.25 MHZ
Type APP Name APP Frequency 121.1 MHZ
Type APP Name TOULOUSE A Frequency 125.175 MHZ
Type ATIS Name ATIS Frequency 123.125 MHZ
Type CLD Name CLNC DEL Frequency 121.7 MHZ
Type GND Name GND Frequency 121.9 MHZ
Type TWR Name TWR Frequency 118.1 MHZ
Airport Navaids
Type NDB Name Toulouse Frequency 415 KHZ
Type VOR-DME Name Toulouse Frequency 117700 KHZ
Type NDB Name Toulouse Frequency 423 KHZ
Type NDB Name Toulouse Frequency 406 KHZ
Airport Weather Information & NOTAM
ADDS - METARS form results

(0133 UTC 19 August 2018)
 
METAR text: LFBO 190100Z AUTO 17004KT CAVOK 18/13 Q1022 NOSIG
Conditions at: LFBO (TOULOUSE/BLAGNAC, FR) observed 0100 UTC 19 August 2018
Temperature: 18.0°C (64°F)
Dewpoint: 13.0°C (55°F) [RH = 73%]
Pressure (altimeter): 30.18 inches Hg (1022.0 mb)
Winds: from the S (170 degrees) at 5 MPH (4 knots; 2.1 m/s)
Visibility: 6 or more miles (10+ km)
Ceiling: ceiling and visibility are OK
Clouds: unknown
Weather: no significant weather observed at this time